createdAt,value
2019-03-12T00:00:01.289Z,0.00
2019-03-12T00:01:01.226Z,0.00
2019-03-12T00:02:01.153Z,0.00
2019-03-12T00:03:01.082Z,0.00
2019-03-12T00:04:01.016Z,0.00
2019-03-12T00:05:00.949Z,0.00
2019-03-12T00:06:00.870Z,0.00
2019-03-12T00:07:00.787Z,0.00
2019-03-12T00:08:00.717Z,0.00
2019-03-12T00:09:00.657Z,0.00
2019-03-12T00:10:00.595Z,0.00
2019-03-12T00:11:00.509Z,0.00
2019-03-12T00:12:00.434Z,0.00
2019-03-12T00:13:00.361Z,0.00
2019-03-12T00:14:00.291Z,0.00
2019-03-12T00:15:00.373Z,0.00
2019-03-12T00:16:00.162Z,0.00
2019-03-12T00:17:00.090Z,0.00
2019-03-12T00:18:00.021Z,0.00
2019-03-12T00:18:59.933Z,0.00
2019-03-12T00:19:59.862Z,0.00
2019-03-12T00:20:59.793Z,0.00
2019-03-12T00:21:59.725Z,0.00
2019-03-12T00:22:59.662Z,0.00
2019-03-12T00:23:59.590Z,0.00
2019-03-12T00:24:59.509Z,0.00
2019-03-12T00:25:59.437Z,0.00
2019-03-12T00:26:59.382Z,0.00
2019-03-12T00:27:59.311Z,0.00
2019-03-12T00:28:59.235Z,0.00
2019-03-12T00:29:59.183Z,0.00
2019-03-12T00:30:59.083Z,0.00
2019-03-12T00:31:59.020Z,0.00
2019-03-12T00:32:58.937Z,0.00
2019-03-12T00:33:58.871Z,0.00
2019-03-12T00:34:58.819Z,0.00
2019-03-12T00:35:58.743Z,0.00
2019-03-12T00:36:58.668Z,0.00
2019-03-12T00:37:58.602Z,0.00
2019-03-12T00:38:58.509Z,0.00
2019-03-12T00:39:58.446Z,0.00
2019-03-12T00:40:58.377Z,0.00
2019-03-12T00:41:58.314Z,0.00
2019-03-12T00:42:58.224Z,0.00
2019-03-12T00:43:58.153Z,0.00
2019-03-12T00:44:58.084Z,0.00
2019-03-12T00:45:58.014Z,0.00
2019-03-12T00:46:57.952Z,0.00
2019-03-12T00:47:57.884Z,0.00
2019-03-12T00:48:57.795Z,0.00
2019-03-12T00:49:57.728Z,0.00
2019-03-12T00:50:57.663Z,0.00
2019-03-12T00:51:57.592Z,0.00
2019-03-12T00:52:57.523Z,0.00
2019-03-12T00:53:57.452Z,0.00
2019-03-12T00:54:57.363Z,0.00
2019-03-12T00:55:57.294Z,0.00
2019-03-12T00:56:57.231Z,0.00
2019-03-12T00:57:57.162Z,0.00
2019-03-12T00:58:57.076Z,0.00
2019-03-12T00:59:57.006Z,0.00
2019-03-12T01:00:56.936Z,0.00
2019-03-12T01:01:56.868Z,0.00
2019-03-12T01:02:56.798Z,0.00
2019-03-12T01:03:56.730Z,0.00
2019-03-12T01:04:56.661Z,0.00
2019-03-12T01:05:56.589Z,0.00
2019-03-12T01:06:56.500Z,0.00
2019-03-12T01:07:56.429Z,0.00
2019-03-12T01:08:56.358Z,0.00
2019-03-12T01:09:56.287Z,0.00
2019-03-12T01:10:56.252Z,0.00
2019-03-12T01:11:56.158Z,0.00
2019-03-12T01:12:56.070Z,0.00
2019-03-12T01:13:55.998Z,0.00
2019-03-12T01:14:55.953Z,0.00
2019-03-12T01:15:55.889Z,0.00
2019-03-12T01:16:55.795Z,0.00
2019-03-12T01:17:55.728Z,0.00
2019-03-12T01:18:55.636Z,0.00
2019-03-12T01:19:55.565Z,0.00
2019-03-12T01:20:55.493Z,0.00
2019-03-12T01:21:55.422Z,0.00
2019-03-12T01:22:55.419Z,0.00
2019-03-12T01:23:55.291Z,0.00
2019-03-12T01:24:55.218Z,0.00
2019-03-12T01:25:55.162Z,0.00
2019-03-12T01:26:55.059Z,0.00
2019-03-12T01:27:54.988Z,0.00
2019-03-12T01:28:54.929Z,0.00
2019-03-12T01:29:54.855Z,0.00
2019-03-12T01:30:54.774Z,0.00
2019-03-12T01:31:54.702Z,0.00
2019-03-12T01:32:54.630Z,0.00
2019-03-12T01:33:54.554Z,0.00
2019-03-12T01:34:54.494Z,0.00
2019-03-12T01:35:54.422Z,0.00
2019-03-12T01:36:54.353Z,0.00
2019-03-12T01:37:54.279Z,0.00
2019-03-12T01:38:54.201Z,0.00
2019-03-12T01:39:54.126Z,0.00
2019-03-12T01:40:54.050Z,0.00
2019-03-12T01:41:53.977Z,0.00
2019-03-12T01:42:53.920Z,0.00
2019-03-12T01:43:53.848Z,0.00
2019-03-12T01:44:53.758Z,0.00
2019-03-12T01:45:53.689Z,0.00
2019-03-12T01:46:53.629Z,0.00
2019-03-12T01:47:53.556Z,0.00
2019-03-12T01:48:53.482Z,0.00
2019-03-12T01:49:53.447Z,0.00
2019-03-12T01:50:53.324Z,0.00
2019-03-12T01:51:53.251Z,0.00
2019-03-12T01:52:53.193Z,0.00
2019-03-12T01:53:53.128Z,0.00
2019-03-12T01:54:53.038Z,0.00
2019-03-12T01:55:52.960Z,0.00
2019-03-12T01:56:52.892Z,0.00
2019-03-12T01:57:52.836Z,0.00
2019-03-12T01:58:52.759Z,0.00
2019-03-12T01:59:52.682Z,0.00
2019-03-12T02:00:52.600Z,0.00
2019-03-12T02:01:52.526Z,0.00
2019-03-12T02:02:52.469Z,0.00
2019-03-12T02:03:52.393Z,0.00
2019-03-12T02:04:52.320Z,0.00
2019-03-12T02:05:52.250Z,0.00
2019-03-12T02:06:52.176Z,0.00
2019-03-12T02:07:52.094Z,0.00
2019-03-12T02:08:52.020Z,0.00
2019-03-12T02:09:51.946Z,0.00
2019-03-12T02:10:51.881Z,0.00
2019-03-12T02:11:51.813Z,0.00
2019-03-12T02:12:51.743Z,0.00
2019-03-12T02:13:51.670Z,0.00
2019-03-12T02:14:51.585Z,0.00
2019-03-12T02:15:51.512Z,0.00
2019-03-12T02:16:51.457Z,0.00
2019-03-12T02:17:51.381Z,0.00
2019-03-12T02:18:51.293Z,0.00
2019-03-12T02:19:51.221Z,0.00
2019-03-12T02:20:51.152Z,0.00
2019-03-12T02:21:51.078Z,0.00
2019-03-12T02:22:51.020Z,0.00
2019-03-12T02:23:50.946Z,0.00
2019-03-12T02:24:53.017Z,0.00
2019-03-12T02:25:50.791Z,0.00
2019-03-12T02:26:50.731Z,0.00
2019-03-12T02:27:50.656Z,0.00
2019-03-12T02:28:50.580Z,0.00
2019-03-12T02:29:50.511Z,0.00
2019-03-12T02:30:50.429Z,0.00
2019-03-12T02:31:50.352Z,0.00
2019-03-12T02:32:50.313Z,0.00
2019-03-12T02:33:50.226Z,0.00
2019-03-12T02:34:50.135Z,0.00
2019-03-12T02:35:50.064Z,0.00
2019-03-12T02:36:49.997Z,0.00
2019-03-12T02:37:49.924Z,0.00
2019-03-12T02:38:49.861Z,0.00
2019-03-12T02:39:49.785Z,0.00
2019-03-12T02:40:49.713Z,0.00
2019-03-12T02:41:49.641Z,0.00
2019-03-12T02:42:49.558Z,0.00
2019-03-12T02:43:49.487Z,0.00
2019-03-12T02:44:49.410Z,0.00
2019-03-12T02:45:49.347Z,0.00
2019-03-12T02:46:49.277Z,0.00
2019-03-12T02:47:49.209Z,0.00
2019-03-12T02:48:49.119Z,0.00
2019-03-12T02:49:49.051Z,0.00
2019-03-12T02:50:49.000Z,0.00
2019-03-12T02:51:48.924Z,0.00
2019-03-12T02:52:48.840Z,0.00
2019-03-12T02:53:48.798Z,0.00
2019-03-12T02:54:48.690Z,0.00
2019-03-12T02:55:48.615Z,0.00
2019-03-12T02:56:48.551Z,0.00
2019-03-12T02:57:48.487Z,0.00
2019-03-12T02:58:48.395Z,0.00
2019-03-12T02:59:48.318Z,0.00
2019-03-12T03:00:48.245Z,0.00
2019-03-12T03:01:48.172Z,0.00
2019-03-12T03:02:48.112Z,0.00
2019-03-12T03:03:48.044Z,0.00
2019-03-12T03:04:47.955Z,0.00
2019-03-12T03:05:47.884Z,0.00
2019-03-12T03:06:47.843Z,0.00
2019-03-12T03:07:47.747Z,0.00
2019-03-12T03:08:47.674Z,0.00
2019-03-12T03:09:47.600Z,0.00
2019-03-12T03:10:47.531Z,0.00
2019-03-12T03:11:50.924Z,0.00
2019-03-12T03:12:47.368Z,0.00
2019-03-12T03:13:47.297Z,0.00
2019-03-12T03:14:47.236Z,0.00
2019-03-12T03:15:47.196Z,0.00
2019-03-12T03:16:47.091Z,0.00
2019-03-12T03:17:47.021Z,0.00
2019-03-12T03:18:46.938Z,0.00
2019-03-12T03:19:46.860Z,0.00
2019-03-12T03:20:46.799Z,0.00
2019-03-12T03:21:46.726Z,0.00
2019-03-12T03:22:46.638Z,0.00
2019-03-12T03:23:46.563Z,0.00
2019-03-12T03:24:46.493Z,0.00
2019-03-12T03:25:46.421Z,0.00
2019-03-12T03:26:46.357Z,0.00
2019-03-12T03:27:46.288Z,0.00
2019-03-12T03:28:46.226Z,0.00
2019-03-12T03:29:46.141Z,0.00
2019-03-12T03:30:46.051Z,0.00
2019-03-12T03:31:45.983Z,0.00
2019-03-12T03:32:45.920Z,0.00
2019-03-12T03:33:45.837Z,0.00
2019-03-12T03:34:45.792Z,0.00
2019-03-12T03:35:45.701Z,0.00
2019-03-12T03:36:45.610Z,0.00
2019-03-12T03:37:45.543Z,0.00
2019-03-12T03:38:45.483Z,0.00
2019-03-12T03:39:45.431Z,0.00
2019-03-12T03:40:45.333Z,0.00
2019-03-12T03:41:45.285Z,0.00
2019-03-12T03:42:45.168Z,0.00
2019-03-12T03:43:45.098Z,0.00
2019-03-12T03:44:45.029Z,0.00
2019-03-12T03:45:44.950Z,0.00
2019-03-12T03:46:44.886Z,0.00
2019-03-12T03:47:44.823Z,0.00
2019-03-12T03:48:44.744Z,0.00
2019-03-12T03:49:44.672Z,0.00
2019-03-12T03:50:44.587Z,0.00
2019-03-12T03:51:44.509Z,0.00
2019-03-12T03:52:44.448Z,0.00
2019-03-12T03:53:44.374Z,0.00
2019-03-12T03:54:44.296Z,0.00
2019-03-12T03:55:44.220Z,0.00
2019-03-12T03:56:44.154Z,0.00
2019-03-12T03:57:44.080Z,0.00
2019-03-12T03:58:44.009Z,0.00
2019-03-12T03:59:43.932Z,0.00
2019-03-12T04:00:43.850Z,0.00
2019-03-12T04:01:43.784Z,0.00
2019-03-12T04:02:43.719Z,0.00
2019-03-12T04:03:43.636Z,0.00
2019-03-12T04:04:43.566Z,0.00
2019-03-12T04:05:43.495Z,0.00
2019-03-12T04:06:43.407Z,0.00
2019-03-12T04:07:43.329Z,0.00
2019-03-12T04:08:43.279Z,0.00
2019-03-12T04:09:43.205Z,0.00
2019-03-12T04:10:43.111Z,0.00
2019-03-12T04:11:43.043Z,0.00
2019-03-12T04:12:42.973Z,0.00
2019-03-12T04:13:42.901Z,0.00
2019-03-12T04:14:42.831Z,0.00
2019-03-12T04:15:42.776Z,0.00
2019-03-12T04:16:42.684Z,0.00
2019-03-12T04:17:42.617Z,0.00
2019-03-12T04:18:42.524Z,0.00
2019-03-12T04:19:42.450Z,0.00
2019-03-12T04:20:42.381Z,0.00
2019-03-12T04:21:42.303Z,0.00
2019-03-12T04:22:42.248Z,0.00
2019-03-12T04:23:42.169Z,0.00
2019-03-12T04:24:42.092Z,0.00
2019-03-12T04:25:42.007Z,0.00
2019-03-12T04:26:41.942Z,0.00
2019-03-12T04:27:48.425Z,0.00
2019-03-12T04:28:41.805Z,0.00
2019-03-12T04:29:41.711Z,0.00
2019-03-12T04:30:41.640Z,0.00
2019-03-12T04:31:41.575Z,0.00
2019-03-12T04:32:41.495Z,0.00
2019-03-12T04:33:41.448Z,0.00
2019-03-12T04:34:41.437Z,0.00
2019-03-12T04:35:41.287Z,0.00
2019-03-12T04:36:41.209Z,0.00
2019-03-12T04:37:41.120Z,0.00
2019-03-12T04:38:41.050Z,0.00
2019-03-12T04:39:41.006Z,0.00
2019-03-12T04:40:40.909Z,0.00
2019-03-12T04:41:40.830Z,0.00
2019-03-12T04:42:40.754Z,0.00
2019-03-12T04:43:40.685Z,0.00
2019-03-12T04:44:40.607Z,0.00
2019-03-12T04:45:40.558Z,0.00
2019-03-12T04:46:40.474Z,0.00
2019-03-12T04:47:40.396Z,0.00
2019-03-12T04:48:40.329Z,0.00
2019-03-12T04:49:40.240Z,0.00
2019-03-12T04:50:40.162Z,0.00
2019-03-12T04:51:40.093Z,0.00
2019-03-12T04:52:40.016Z,0.00
2019-03-12T04:53:39.957Z,0.00
2019-03-12T04:54:39.885Z,0.00
2019-03-12T04:55:39.800Z,0.00
2019-03-12T04:56:39.722Z,0.00
2019-03-12T04:57:39.661Z,0.00
2019-03-12T04:58:39.587Z,0.00
2019-03-12T04:59:39.516Z,0.00
2019-03-12T05:00:39.439Z,0.00
2019-03-12T05:01:39.352Z,0.00
2019-03-12T05:02:39.276Z,0.00
2019-03-12T05:03:39.221Z,0.00
2019-03-12T05:04:39.139Z,0.00
2019-03-12T05:05:39.056Z,0.00
2019-03-12T05:06:38.986Z,0.00
2019-03-12T05:07:38.912Z,0.00
2019-03-12T05:08:38.847Z,0.00
2019-03-12T05:09:38.777Z,0.00
2019-03-12T05:10:38.703Z,0.00
2019-03-12T05:11:38.621Z,0.00
2019-03-12T05:12:38.543Z,0.00
2019-03-12T05:13:38.481Z,0.00
2019-03-12T05:14:38.406Z,0.00
2019-03-12T05:15:38.329Z,0.00
2019-03-12T05:16:38.258Z,0.00
2019-03-12T05:17:38.174Z,0.00
2019-03-12T05:18:38.100Z,0.00
2019-03-12T05:19:38.024Z,0.00
2019-03-12T05:20:37.952Z,0.00
2019-03-12T05:21:37.893Z,0.00
2019-03-12T05:22:37.814Z,0.00
2019-03-12T05:23:37.751Z,0.00
2019-03-12T05:24:37.672Z,0.00
2019-03-12T05:25:37.590Z,0.00
2019-03-12T05:26:37.510Z,0.00
2019-03-12T05:27:37.453Z,0.00
2019-03-12T05:28:37.375Z,0.00
2019-03-12T05:29:37.288Z,0.00
2019-03-12T05:30:37.220Z,0.00
2019-03-12T05:31:37.145Z,0.00
2019-03-12T05:32:37.072Z,0.00
2019-03-12T05:33:37.007Z,0.00
2019-03-12T05:34:36.934Z,0.00
2019-03-12T05:35:36.858Z,0.00
2019-03-12T05:36:36.845Z,0.00
2019-03-12T05:37:36.702Z,0.00
2019-03-12T05:38:36.629Z,0.00
2019-03-12T05:39:36.554Z,0.00
2019-03-12T05:40:36.480Z,0.00
2019-03-12T05:41:36.417Z,0.00
2019-03-12T05:42:36.346Z,0.00
2019-03-12T05:43:36.260Z,0.00
2019-03-12T05:44:36.182Z,0.00
2019-03-12T05:45:36.131Z,0.00
2019-03-12T05:46:36.052Z,0.00
2019-03-12T05:47:35.977Z,0.00
2019-03-12T05:48:35.904Z,0.00
2019-03-12T05:49:35.814Z,0.00
2019-03-12T05:50:35.752Z,0.00
2019-03-12T05:51:35.670Z,0.00
2019-03-12T05:52:35.597Z,0.00
2019-03-12T05:53:35.537Z,0.00
2019-03-12T05:54:35.460Z,0.00
2019-03-12T05:55:35.390Z,0.00
2019-03-12T05:56:35.315Z,0.00
2019-03-12T05:57:35.228Z,0.00
2019-03-12T05:58:35.154Z,0.00
2019-03-12T05:59:35.094Z,0.00
2019-03-12T06:00:35.021Z,0.00
2019-03-12T06:01:34.937Z,0.00
2019-03-12T06:02:34.867Z,0.00
2019-03-12T06:03:34.782Z,0.00
2019-03-12T06:04:34.712Z,0.00
2019-03-12T06:05:34.649Z,0.00
2019-03-12T06:06:34.575Z,0.00
2019-03-12T06:07:34.488Z,0.00
2019-03-12T06:08:34.418Z,0.00
2019-03-12T06:09:34.356Z,0.00
2019-03-12T06:10:34.363Z,0.00
2019-03-12T06:11:34.202Z,0.00
2019-03-12T06:12:34.139Z,0.00
2019-03-12T06:13:34.046Z,0.00
2019-03-12T06:14:33.971Z,0.00
2019-03-12T06:15:33.912Z,0.00
2019-03-12T06:16:33.834Z,0.00
2019-03-12T06:17:33.753Z,0.00
2019-03-12T06:18:33.674Z,0.00
2019-03-12T06:19:33.604Z,0.00
2019-03-12T06:20:33.532Z,0.00
2019-03-12T06:21:33.459Z,0.00
2019-03-12T06:22:33.436Z,0.00
2019-03-12T06:23:33.311Z,0.00
2019-03-12T06:24:33.243Z,0.00
2019-03-12T06:25:33.156Z,5.63
2019-03-12T06:26:33.074Z,5.63
2019-03-12T06:27:33.005Z,5.63
2019-03-12T06:28:32.934Z,5.63
2019-03-12T06:29:32.872Z,5.63
2019-03-12T06:30:32.794Z,5.63
2019-03-12T06:31:32.702Z,5.63
2019-03-12T06:32:32.646Z,5.63
2019-03-12T06:33:32.597Z,11.25
2019-03-12T06:34:32.495Z,11.25
2019-03-12T06:35:32.418Z,11.25
2019-03-12T06:36:32.350Z,11.25
2019-03-12T06:37:32.285Z,11.25
2019-03-12T06:38:32.183Z,16.88
2019-03-12T06:39:32.120Z,16.88
2019-03-12T06:40:32.049Z,16.88
2019-03-12T06:41:31.959Z,22.50
2019-03-12T06:42:31.882Z,22.50
2019-03-12T06:43:31.814Z,22.50
2019-03-12T06:44:31.734Z,28.13
2019-03-12T06:45:31.670Z,28.13
2019-03-12T06:46:31.601Z,33.75
2019-03-12T06:47:31.515Z,33.75
2019-03-12T06:48:31.470Z,39.38
2019-03-12T06:49:31.379Z,39.38
2019-03-12T06:50:31.310Z,39.38
2019-03-12T06:51:31.234Z,39.38
2019-03-12T06:52:31.164Z,39.38
2019-03-12T06:53:31.071Z,39.38
2019-03-12T06:54:30.991Z,45.00
2019-03-12T06:55:30.923Z,45.00
2019-03-12T06:56:30.851Z,50.63
2019-03-12T06:57:30.792Z,50.63
2019-03-12T06:58:30.718Z,50.63
2019-03-12T06:59:30.639Z,56.25
2019-03-12T07:00:30.564Z,56.25
2019-03-12T07:01:30.478Z,61.88
2019-03-12T07:02:30.404Z,61.88
2019-03-12T07:03:30.345Z,61.88
2019-03-12T07:04:30.270Z,67.50
2019-03-12T07:05:30.181Z,67.50
2019-03-12T07:06:30.115Z,73.13
2019-03-12T07:07:30.037Z,73.13
2019-03-12T07:08:29.960Z,73.13
2019-03-12T07:09:29.902Z,78.75
2019-03-12T07:10:29.829Z,78.75
2019-03-12T07:11:29.738Z,84.38
2019-03-12T07:12:29.708Z,84.38
2019-03-12T07:13:29.610Z,84.38
2019-03-12T07:14:29.538Z,84.38
2019-03-12T07:15:29.458Z,84.38
2019-03-12T07:16:29.390Z,84.38
2019-03-12T07:17:29.302Z,90.00
2019-03-12T07:18:29.227Z,90.00
2019-03-12T07:19:29.162Z,90.00
2019-03-12T07:20:29.090Z,95.63
2019-03-12T07:21:29.009Z,95.63
2019-03-12T07:22:28.930Z,95.63
2019-03-12T07:23:28.860Z,101.25
2019-03-12T07:24:28.785Z,101.25
2019-03-12T07:25:28.727Z,101.25
2019-03-12T07:26:28.652Z,106.88
2019-03-12T07:27:28.617Z,106.88
2019-03-12T07:28:28.506Z,106.88
2019-03-12T07:29:28.420Z,112.50
2019-03-12T07:30:28.351Z,112.50
2019-03-12T07:31:28.438Z,112.50
2019-03-12T07:32:28.201Z,118.13
2019-03-12T07:33:28.143Z,118.13
2019-03-12T07:34:36.632Z,118.13
2019-03-12T07:35:28.007Z,118.13
2019-03-12T07:36:27.915Z,123.75
2019-03-12T07:37:27.855Z,123.75
2019-03-12T07:38:27.780Z,129.38
2019-03-12T07:39:27.706Z,129.38
2019-03-12T07:40:27.646Z,129.38
2019-03-12T07:41:32.130Z,129.38
2019-03-12T07:42:27.515Z,135.00
2019-03-12T07:43:27.398Z,135.00
2019-03-12T07:44:27.355Z,135.00
2019-03-12T07:45:27.277Z,140.63
2019-03-12T07:46:27.198Z,140.63
2019-03-12T07:47:35.727Z,140.63
2019-03-12T07:48:27.053Z,140.63
2019-03-12T07:49:26.963Z,140.63
2019-03-12T07:50:26.890Z,140.63
2019-03-12T07:51:26.833Z,140.63
2019-03-12T07:52:26.760Z,146.25
2019-03-12T07:53:26.688Z,146.25
2019-03-12T07:54:26.601Z,146.25
2019-03-12T07:55:29.657Z,146.25
2019-03-12T07:56:26.497Z,146.25
2019-03-12T07:57:26.397Z,146.25
2019-03-12T07:58:35.577Z,146.25
2019-03-12T07:59:26.251Z,146.25
2019-03-12T08:00:26.185Z,146.25
2019-03-12T08:01:26.098Z,151.88
2019-03-12T08:02:26.028Z,151.88
2019-03-12T08:03:25.953Z,151.88
2019-03-12T08:04:25.890Z,151.88
2019-03-12T08:05:28.327Z,151.88
2019-03-12T08:06:25.746Z,135.00
2019-03-12T08:07:25.662Z,118.13
2019-03-12T08:08:25.591Z,101.25
2019-03-12T08:09:25.545Z,101.25
2019-03-12T08:10:25.465Z,118.13
2019-03-12T08:11:25.387Z,140.63
2019-03-12T08:12:25.313Z,140.63
2019-03-12T08:13:25.238Z,118.13
2019-03-12T08:14:26.850Z,140.63
2019-03-12T08:15:25.097Z,123.75
2019-03-12T08:16:25.029Z,118.13
2019-03-12T08:17:24.974Z,140.63
2019-03-12T08:18:24.872Z,151.88
2019-03-12T08:19:24.798Z,157.50
2019-03-12T08:20:24.726Z,163.13
2019-03-12T08:21:24.672Z,163.13
2019-03-12T08:22:24.598Z,163.13
2019-03-12T08:23:24.511Z,163.13
2019-03-12T08:24:24.449Z,163.13
2019-03-12T08:25:24.385Z,163.13
2019-03-12T08:26:24.308Z,163.13
2019-03-12T08:27:26.068Z,163.13
2019-03-12T08:28:24.169Z,168.75
2019-03-12T08:29:24.086Z,168.75
2019-03-12T08:30:24.009Z,168.75
2019-03-12T08:31:23.940Z,168.75
2019-03-12T08:32:24.097Z,168.75
2019-03-12T08:33:23.814Z,168.75
2019-03-12T08:34:23.733Z,168.75
2019-03-12T08:35:23.665Z,168.75
2019-03-12T08:36:23.593Z,168.75
2019-03-12T08:37:23.508Z,168.75
2019-03-12T08:38:23.441Z,168.75
2019-03-12T08:39:23.384Z,168.75
2019-03-12T08:40:23.312Z,168.75
2019-03-12T08:41:23.230Z,168.75
2019-03-12T08:42:23.175Z,174.38
2019-03-12T08:43:23.078Z,174.38
2019-03-12T08:44:26.169Z,174.38
2019-03-12T08:45:22.953Z,174.38
2019-03-12T08:46:23.209Z,174.38
2019-03-12T08:47:22.814Z,174.38
2019-03-12T08:48:22.737Z,174.38
2019-03-12T08:49:22.659Z,174.38
2019-03-12T08:50:22.588Z,174.38
2019-03-12T08:51:22.513Z,174.38
2019-03-12T08:52:22.448Z,174.38
2019-03-12T08:53:22.385Z,174.38
2019-03-12T08:54:22.310Z,174.38
2019-03-12T08:55:22.267Z,174.38
2019-03-12T08:56:22.159Z,174.38
2019-03-12T08:57:22.100Z,174.38
2019-03-12T08:58:22.033Z,174.38
2019-03-12T08:59:21.957Z,180.00
2019-03-12T09:00:23.989Z,174.38
2019-03-12T09:01:21.805Z,174.38
2019-03-12T09:02:21.741Z,174.38
2019-03-12T09:03:21.667Z,174.38
2019-03-12T09:04:21.595Z,174.38
2019-03-12T09:05:21.537Z,174.38
2019-03-12T09:06:21.462Z,180.00
2019-03-12T09:07:21.393Z,180.00
2019-03-12T09:08:21.354Z,180.00
2019-03-12T09:09:21.243Z,180.00
2019-03-12T09:10:21.169Z,180.00
2019-03-12T09:11:21.111Z,180.00
2019-03-12T09:12:21.045Z,180.00
2019-03-12T09:13:20.959Z,180.00
2019-03-12T09:14:20.885Z,180.00
2019-03-12T09:15:20.825Z,180.00
2019-03-12T09:16:20.746Z,180.00
2019-03-12T09:17:20.695Z,180.00
2019-03-12T09:18:20.616Z,180.00
2019-03-12T09:19:20.537Z,180.00
2019-03-12T09:20:20.463Z,180.00
2019-03-12T09:21:20.405Z,180.00
2019-03-12T09:22:20.336Z,180.00
2019-03-12T09:23:20.269Z,180.00
2019-03-12T09:24:20.196Z,180.00
2019-03-12T09:25:20.122Z,180.00
2019-03-12T09:26:20.043Z,180.00
2019-03-12T09:27:19.980Z,174.38
2019-03-12T09:28:19.921Z,174.38
2019-03-12T09:29:19.833Z,180.00
2019-03-12T09:30:19.755Z,174.38
2019-03-12T09:31:19.691Z,180.00
2019-03-12T09:32:19.615Z,174.38
2019-03-12T09:33:19.565Z,174.38
2019-03-12T09:34:19.491Z,174.38
2019-03-12T09:35:19.419Z,174.38
2019-03-12T09:36:19.346Z,174.38
2019-03-12T09:37:19.261Z,174.38
2019-03-12T09:38:19.193Z,174.38
2019-03-12T09:39:19.123Z,174.38
2019-03-12T09:40:19.051Z,180.00
2019-03-12T09:41:18.990Z,168.75
2019-03-12T09:42:18.924Z,174.38
2019-03-12T09:43:18.835Z,174.38
2019-03-12T09:44:18.770Z,174.38
2019-03-12T09:45:18.712Z,174.38
2019-03-12T09:46:18.642Z,174.38
2019-03-12T09:47:18.568Z,174.38
2019-03-12T09:48:18.497Z,174.38
2019-03-12T09:49:18.411Z,174.38
2019-03-12T09:50:18.343Z,174.38
2019-03-12T09:51:18.271Z,180.00
2019-03-12T09:52:18.199Z,180.00
2019-03-12T09:53:18.140Z,180.00
2019-03-12T09:54:18.068Z,174.38
2019-03-12T09:55:17.999Z,174.38
2019-03-12T09:56:17.931Z,174.38
2019-03-12T09:57:17.847Z,174.38
2019-03-12T09:58:17.779Z,174.38
2019-03-12T09:59:17.764Z,174.38
2019-03-12T10:00:17.648Z,174.38
2019-03-12T10:01:17.563Z,168.75
2019-03-12T10:02:17.492Z,174.38
2019-03-12T10:03:17.428Z,174.38
2019-03-12T10:04:17.476Z,174.38
2019-03-12T10:05:17.294Z,174.38
2019-03-12T10:06:17.227Z,174.38
2019-03-12T10:07:17.160Z,174.38
2019-03-12T10:08:17.086Z,174.38
2019-03-12T10:09:16.998Z,174.38
2019-03-12T10:10:16.935Z,174.38
2019-03-12T10:11:16.857Z,180.00
2019-03-12T10:12:16.785Z,180.00
2019-03-12T10:13:16.731Z,180.00
2019-03-12T10:14:16.657Z,174.38
2019-03-12T10:15:16.581Z,168.75
2019-03-12T10:16:16.507Z,168.75
2019-03-12T10:17:16.451Z,163.13
2019-03-12T10:18:16.383Z,163.13
2019-03-12T10:19:16.306Z,168.75
2019-03-12T10:20:16.240Z,180.00
2019-03-12T10:21:16.151Z,185.63
2019-03-12T10:22:16.083Z,180.00
2019-03-12T10:23:16.023Z,174.38
2019-03-12T10:24:15.955Z,174.38
2019-03-12T10:25:15.869Z,168.75
2019-03-12T10:26:15.799Z,168.75
2019-03-12T10:27:15.731Z,174.38
2019-03-12T10:28:15.661Z,174.38
2019-03-12T10:29:15.604Z,174.38
2019-03-12T10:30:15.531Z,174.38
2019-03-12T10:31:15.451Z,180.00
2019-03-12T10:32:15.383Z,174.38
2019-03-12T10:33:15.327Z,174.38
2019-03-12T10:34:15.253Z,174.38
2019-03-12T10:35:15.180Z,174.38
2019-03-12T10:36:15.314Z,163.13
2019-03-12T10:37:16.584Z,151.88
2019-03-12T10:38:14.954Z,140.63
2019-03-12T10:39:14.887Z,146.25
2019-03-12T10:40:14.815Z,174.38
2019-03-12T10:41:14.757Z,174.38
2019-03-12T10:42:14.687Z,174.38
2019-03-12T10:43:14.618Z,168.75
2019-03-12T10:44:14.581Z,168.75
2019-03-12T10:45:14.463Z,168.75
2019-03-12T10:46:14.389Z,163.13
2019-03-12T10:47:14.338Z,163.13
2019-03-12T10:48:14.261Z,163.13
2019-03-12T10:49:14.181Z,163.13
2019-03-12T10:50:14.113Z,163.13
2019-03-12T10:51:14.044Z,163.13
2019-03-12T10:52:13.971Z,163.13
2019-03-12T10:53:13.921Z,157.50
2019-03-12T10:54:13.841Z,157.50
2019-03-12T10:55:14.124Z,157.50
2019-03-12T10:56:13.700Z,151.88
2019-03-12T10:57:13.633Z,146.25
2019-03-12T10:58:13.563Z,140.63
2019-03-12T10:59:13.490Z,140.63
2019-03-12T11:00:13.421Z,140.63
2019-03-12T11:01:13.339Z,146.25
2019-03-12T11:02:13.270Z,151.88
2019-03-12T11:03:13.213Z,151.88
2019-03-12T11:04:13.146Z,157.50
2019-03-12T11:05:13.059Z,157.50
2019-03-12T11:06:12.990Z,157.50
2019-03-12T11:07:16.705Z,157.50
2019-03-12T11:08:12.851Z,157.50
2019-03-12T11:09:12.850Z,140.63
2019-03-12T11:10:12.763Z,146.25
2019-03-12T11:11:12.654Z,146.25
2019-03-12T11:12:12.584Z,151.88
2019-03-12T11:13:14.713Z,129.38
2019-03-12T11:14:12.451Z,129.38
2019-03-12T11:15:12.359Z,129.38
2019-03-12T11:16:12.289Z,123.75
2019-03-12T11:17:12.234Z,123.75
2019-03-12T11:18:12.163Z,101.25
2019-03-12T11:19:12.080Z,90.00
2019-03-12T11:20:12.007Z,95.63
2019-03-12T11:21:11.953Z,84.38
2019-03-12T11:22:11.879Z,90.00
2019-03-12T11:23:11.816Z,106.88
2019-03-12T11:24:11.742Z,118.13
2019-03-12T11:25:11.657Z,106.88
2019-03-12T11:26:11.589Z,95.63
2019-03-12T11:27:11.533Z,90.00
2019-03-12T11:28:11.462Z,90.00
2019-03-12T11:29:11.375Z,90.00
2019-03-12T11:30:11.305Z,90.00
2019-03-12T11:31:11.235Z,95.63
2019-03-12T11:32:11.161Z,95.63
2019-03-12T11:33:11.105Z,95.63
2019-03-12T11:34:11.043Z,95.63
2019-03-12T11:35:10.951Z,101.25
2019-03-12T11:36:10.887Z,106.88
2019-03-12T11:37:10.875Z,101.25
2019-03-12T11:38:10.796Z,106.88
2019-03-12T11:39:10.683Z,106.88
2019-03-12T11:40:10.647Z,101.25
2019-03-12T11:41:10.526Z,101.25
2019-03-12T11:42:10.457Z,106.88
2019-03-12T11:43:10.383Z,118.13
2019-03-12T11:44:10.314Z,123.75
2019-03-12T11:45:15.005Z,135.00
2019-03-12T11:46:10.207Z,135.00
2019-03-12T11:47:10.119Z,140.63
2019-03-12T11:48:10.318Z,140.63
2019-03-12T11:49:09.979Z,135.00
2019-03-12T11:50:09.894Z,146.25
2019-03-12T11:51:09.944Z,151.88
2019-03-12T11:52:09.767Z,151.88
2019-03-12T11:53:09.786Z,146.25
2019-03-12T11:54:09.837Z,140.63
2019-03-12T11:55:09.539Z,146.25
2019-03-12T11:56:09.474Z,140.63
2019-03-12T11:57:09.416Z,129.38
2019-03-12T11:58:09.353Z,129.38
2019-03-12T11:59:09.300Z,129.38
2019-03-12T12:00:09.203Z,129.38
2019-03-12T12:01:09.152Z,129.38
2019-03-12T12:02:09.052Z,129.38
2019-03-12T12:03:08.988Z,129.38
2019-03-12T12:04:08.912Z,129.38
2019-03-12T12:05:08.858Z,129.38
2019-03-12T12:06:08.787Z,123.75
2019-03-12T12:07:08.708Z,123.75
2019-03-12T12:08:08.634Z,123.75
2019-03-12T12:09:08.593Z,118.13
2019-03-12T12:10:08.503Z,118.13
2019-03-12T12:11:08.438Z,118.13
2019-03-12T12:12:08.368Z,118.13
2019-03-12T12:13:08.281Z,118.13
2019-03-12T12:14:08.222Z,112.50
2019-03-12T12:15:08.145Z,112.50
2019-03-12T12:16:08.070Z,112.50
2019-03-12T12:17:08.014Z,112.50
2019-03-12T12:18:07.944Z,112.50
2019-03-12T12:19:07.879Z,106.88
2019-03-12T12:20:07.807Z,101.25
2019-03-12T12:21:07.759Z,95.63
2019-03-12T12:22:07.653Z,95.63
2019-03-12T12:23:07.591Z,101.25
2019-03-12T12:24:07.526Z,106.88
2019-03-12T12:25:07.443Z,112.50
2019-03-12T12:26:07.374Z,118.13
2019-03-12T12:27:07.310Z,123.75
2019-03-12T12:28:07.234Z,129.38
2019-03-12T12:29:07.175Z,135.00
2019-03-12T12:30:07.107Z,135.00
2019-03-12T12:31:07.032Z,129.38
2019-03-12T12:32:06.956Z,135.00
2019-03-12T12:33:06.896Z,135.00
2019-03-12T12:34:06.831Z,135.00
2019-03-12T12:35:06.761Z,140.63
2019-03-12T12:36:06.688Z,140.63
2019-03-12T12:37:06.612Z,135.00
2019-03-12T12:38:06.538Z,123.75
2019-03-12T12:39:06.483Z,140.63
2019-03-12T12:40:06.409Z,140.63
2019-03-12T12:41:06.338Z,140.63
2019-03-12T12:42:06.260Z,129.38
2019-03-12T12:43:06.194Z,123.75
2019-03-12T12:44:06.124Z,129.38
2019-03-12T12:45:06.068Z,129.38
2019-03-12T12:46:06.003Z,129.38
2019-03-12T12:47:05.924Z,129.38
2019-03-12T12:48:05.862Z,123.75
2019-03-12T12:49:05.778Z,118.13
2019-03-12T12:50:05.706Z,106.88
2019-03-12T12:51:05.646Z,106.88
2019-03-12T12:52:05.586Z,106.88
2019-03-12T12:53:05.513Z,101.25
2019-03-12T12:54:05.532Z,106.88